Crouseville, Maine
Current Conditions -  °F | °C
As of 5:35 AM on Monday 20 Oct 2014 (Local Time) from KPQI Reporting Station
Overcast Overcast  
Wind Chill: 28°   Ceiling: 4800
Heat Index: 36°   Visibility: 10mi
Dew Point: 25°   Wind: 10mph
Humidity: 65%   Direction: 280°W
Pressure: 29.75"   Gusts: NA
Location:  46.75°N, 68.1°W
Report Text: KPQI 200935Z AUTO 28009KT 10SM OVC048 02/M04 A2975 RMK AO1
Loading
Personal Weather Stations






























Interactive Weather Map
Tropical Storm Tracking
New forecast layout! Learn more

10-Day Weather Forecast

Advertisements
Track Severe Weather on mobile